Valor — WDD8691 — position and weather

sailwx.info

Track history (hours):
 
Tides and Currents Weather Stations Pressure Air Temp Water Temp Dewpoint Dewpoint Depression Visibility Wind Speed Wind Dir Waves Ship Positions

Valor

Owner: Crowley Marine Services, Seattle, WA. More information available from US FCC via Universal Licensing System and Coast Guard Vessel Documentation Center.

Last reported at 2017-Dec-11 17:00 UTC. Time now 2017-Dec-14 00:26 UTC.
Position N 37°55' W 122°25'.

Length 8 m; draft 5.5 m.

Type: Tug. MMSI: 367301480.

Date/timePositionNaut miles runAvg speedWind from/ knotsBaromVisibWave heightAir tempDewpointWater temp
2017-Dec-11 17:00N 37°55' W 122°25'4 7.5
2017-Dec-11 16:30N 37°52' W 122°25'510.9
2017-Dec-11 16:00N 37°47' W 122°21'1 2.8
2017-Dec-11 15:30N 37°45' W 122°21'1 1.6
2017-Dec-11 15:00N 37°46' W 122°21'2 4.6
2017-Dec-11 14:30N 37°48' W 122°19'0 0.8
2017-Dec-11 14:00N 37°48' W 122°19'0 0.0
2017-Dec-11 13:31N 37°48' W 122°19'4 8.4
2017-Dec-11 13:01N 37°48' W 122°24'0 0.1
2017-Dec-11 12:30N 37°48' W 122°24'0 0.0
2017-Dec-11 12:00N 37°48' W 122°24'0 0.0
2017-Dec-11 11:30N 37°48' W 122°24'0 0.0
2017-Dec-11 11:00N 37°48' W 122°24'0 0.0
2017-Dec-11 10:30N 37°48' W 122°24'0 0.0
2017-Dec-11 10:00N 37°48' W 122°24'0 0.0
2017-Dec-11 09:30N 37°48' W 122°24'0 0.0
2017-Dec-11 09:00N 37°48' W 122°24'0 0.0
2017-Dec-11 08:30N 37°48' W 122°24'0 0.0
2017-Dec-11 08:00N 37°48' W 122°24'0 0.0
2017-Dec-11 07:30N 37°48' W 122°24'0 0.0
2017-Dec-11 07:00N 37°48' W 122°24'0 0.0
2017-Dec-11 06:30N 37°48' W 122°24'0 0.0
2017-Dec-11 06:00N 37°48' W 122°24'0 0.0
2017-Dec-11 05:30N 37°48' W 122°24'0 0.0
2017-Dec-11 05:00N 37°48' W 122°24'0 0.0
2017-Dec-11 04:30N 37°48' W 122°24'0 0.0
2017-Dec-11 04:00N 37°48' W 122°24'0 0.0
2017-Dec-11 03:30N 37°48' W 122°24'1 1.5
2017-Dec-11 03:00N 37°48' W 122°23'3 6.1
2017-Dec-11 02:30N 37°48' W 122°19'1 1.2
2017-Dec-11 02:00N 37°48' W 122°20'3 5.9
2017-Dec-11 01:30N 37°48' W 122°24'0 0.6
2017-Dec-11 01:00N 37°48' W 122°24'0 0.0
2017-Dec-11 00:30N 37°48' W 122°24'0 0.0
2017-Dec-11 00:00N 37°48' W 122°24'0 0.0
2017-Dec-10 23:30N 37°48' W 122°24'0 0.0
2017-Dec-10 23:00N 37°48' W 122°24'0 0.0
2017-Dec-10 22:30N 37°48' W 122°24'0 0.0
2017-Dec-10 22:00N 37°48' W 122°24'0 0.0
2017-Dec-10 21:30N 37°48' W 122°24'0 0.0
2017-Dec-10 21:00N 37°48' W 122°24'0 0.0
2017-Dec-10 20:30N 37°48' W 122°24'0 0.0
2017-Dec-10 19:59N 37°48' W 122°24'0 0.0
2017-Dec-10 19:30N 37°48' W 122°24'0 0.0
2017-Dec-10 19:00N 37°48' W 122°24'0 0.0
2017-Dec-10 18:30N 37°48' W 122°24'0 0.0
2017-Dec-10 18:00N 37°48' W 122°24'0 0.0
2017-Dec-10 17:30N 37°48' W 122°24'0 0.0
2017-Dec-10 17:00N 37°48' W 122°24'0 0.1
2017-Dec-10 16:30N 37°48' W 122°24'0 0.1
2017-Dec-10 16:00N 37°48' W 122°24'0 0.0
2017-Dec-10 15:30N 37°48' W 122°24'0 0.0
2017-Dec-10 15:00N 37°48' W 122°24'2 3.0
2017-Dec-10 14:30N 37°48' W 122°22'1 2.7
2017-Dec-10 14:00N 37°49' W 122°20'0 0.9
2017-Dec-10 13:30N 37°49' W 122°20'3 5.9
2017-Dec-10 13:00N 37°48' W 122°24'0 0.6
2017-Dec-10 12:30N 37°48' W 122°24'0 0.0
2017-Dec-10 11:59N 37°48' W 122°24'0 0.0
2017-Dec-10 11:29N 37°48' W 122°24'0 0.0
2017-Dec-10 11:00N 37°48' W 122°24'0 0.0
2017-Dec-10 10:30N 37°48' W 122°24'0 0.0
2017-Dec-10 09:55N 37°48' W 122°24'0 0.0
2017-Dec-10 09:29N 37°48' W 122°24'0 0.0
2017-Dec-10 09:00N 37°48' W 122°24'0 0.0
2017-Dec-10 08:30N 37°48' W 122°24'2 4.9
2017-Dec-10 08:00N 37°48' W 122°21'2 4.0
2017-Dec-10 07:31N 37°48' W 122°18'1 1.1
2017-Dec-10 07:01N 37°48' W 122°18'2 3.9
2017-Dec-10 06:30N 37°48' W 122°20'3 5.4
2017-Dec-10 06:00N 37°48' W 122°23'1 2.3
2017-Dec-10 05:30N 37°50' W 122°24'2 5.0
2017-Dec-10 05:00N 37°52' W 122°25'5 9.1
2017-Dec-10 04:30N 37°56' W 122°26'510.0
2017-Dec-10 04:00N 38°01' W 122°23'5 9.2
2017-Dec-10 03:30N 38°03' W 122°18'5 8.5
2017-Dec-10 02:58N 38°03' W 122°12'3 7.2
2017-Dec-10 02:30N 38°02' W 122°08'2 1.2
2017-Dec-10 00:55N 38°03' W 122°11'6 8.5
2017-Dec-10 00:14N 38°03' W 122°18'4 8.7
2017-Dec-09 23:48N 38°01' W 122°23'3 8.7
2017-Dec-09 23:30N 37°60' W 122°25'4 8.7
2017-Dec-09 23:00N 37°55' W 122°25'4 8.8
2017-Dec-09 22:30N 37°51' W 122°24'3 5.8
2017-Dec-09 22:00N 37°48' W 122°24'0 0.0
2017-Dec-09 21:30N 37°48' W 122°24'0 0.0
2017-Dec-09 21:00N 37°48' W 122°24'0 0.0
2017-Dec-09 20:30N 37°48' W 122°24'0 0.0
2017-Dec-09 20:00N 37°48' W 122°24'0 0.0
2017-Dec-09 19:30N 37°48' W 122°24'0 0.0
2017-Dec-09 19:00N 37°48' W 122°24'0 0.0
2017-Dec-09 18:30N 37°48' W 122°24'0 0.0
2017-Dec-09 18:00N 37°48' W 122°24'0 0.0
2017-Dec-09 17:30N 37°48' W 122°24'0 0.0
2017-Dec-09 17:00N 37°48' W 122°24'0 0.0
2017-Dec-09 16:30N 37°48' W 122°24'0 0.0
2017-Dec-09 16:00N 37°48' W 122°24'0 0.0
2017-Dec-09 15:30N 37°48' W 122°24'0 0.0
2017-Dec-09 14:50N 37°48' W 122°24'0 0.0
2017-Dec-09 14:30N 37°48' W 122°24'0 0.0
2017-Dec-09 13:59N 37°48' W 122°24'0 0.0
2017-Dec-09 13:30N 37°48' W 122°24'0 0.0
2017-Dec-09 13:00N 37°48' W 122°24'0 0.0
2017-Dec-09 12:30N 37°48' W 122°24'0 0.0
2017-Dec-09 11:47N 37°48' W 122°24'0 0.0
2017-Dec-09 11:15N 37°48' W 122°24'0 0.0
2017-Dec-09 10:59N 37°48' W 122°24'0 0.0
2017-Dec-09 10:30N 37°48' W 122°24'0 0.0
2017-Dec-09 10:00N 37°48' W 122°24'0 0.0
2017-Dec-09 09:30N 37°48' W 122°24'0 0.0
2017-Dec-09 09:00N 37°48' W 122°24'0 0.0
2017-Dec-09 08:30N 37°48' W 122°24'0 0.0
2017-Dec-09 08:00N 37°48' W 122°24'0 0.0
2017-Dec-09 07:30N 37°48' W 122°24'0 0.0
2017-Dec-09 07:00N 37°48' W 122°24'0 0.0
2017-Dec-09 06:30N 37°48' W 122°24'0 0.0
2017-Dec-09 06:00N 37°48' W 122°24'0 0.0
2017-Dec-09 05:30N 37°48' W 122°24'0 0.0
2017-Dec-09 05:00N 37°48' W 122°24'0 0.0
2017-Dec-09 04:30N 37°48' W 122°24'0 0.0
2017-Dec-09 04:00N 37°48' W 122°24'0 0.0
2017-Dec-09 03:30N 37°48' W 122°24'0 0.0
2017-Dec-09 03:00N 37°48' W 122°24'0 0.0
2017-Dec-09 02:30N 37°48' W 122°24'2 3.6
2017-Dec-09 02:00N 37°47' W 122°22'2 3.4
2017-Dec-09 01:31N 37°46' W 122°21'1 2.2
2017-Dec-09 01:00N 37°47' W 122°21'4 8.8
2017-Dec-09 00:30N 37°49' W 122°26'3 6.9
2017-Dec-09 00:00N 37°48' W 122°30'1 1.0
2017-Dec-08 23:30N 37°48' W 122°30'1 2.1
2017-Dec-08 23:00N 37°49' W 122°29'3 6.1
2017-Dec-08 22:30N 37°49' W 122°25'1 2.4
2017-Dec-08 22:00N 37°48' W 122°24'0 0.0
2017-Dec-08 21:27N 37°48' W 122°24'0 0.0
2017-Dec-08 20:50N 37°48' W 122°24'0 0.0
2017-Dec-08 20:29N 37°48' W 122°24'0 0.0
2017-Dec-08 20:00N 37°48' W 122°24'0 0.0
2017-Dec-08 19:30N 37°48' W 122°24'0 0.0
2017-Dec-08 19:00N 37°48' W 122°24'0 0.0
2017-Dec-08 18:30N 37°48' W 122°24'1 2.0
2017-Dec-08 18:00N 37°49' W 122°24'5 9.5
2017-Dec-08 17:30N 37°54' W 122°25'2 3.0
2017-Dec-08 17:00N 37°55' W 122°25'1 1.9
2017-Dec-08 16:30N 37°55' W 122°26'0 0.3
2017-Dec-08 16:00N 37°55' W 122°26'1 1.6
2017-Dec-08 15:30N 37°54' W 122°26'2 4.5
2017-Dec-08 15:00N 37°52' W 122°24'3 6.7
2017-Dec-08 14:30N 37°50' W 122°27'3 5.3
2017-Dec-08 14:00N 37°49' W 122°30'1 2.4
2017-Dec-08 13:31N 37°49' W 122°29'4 8.4
2017-Dec-08 13:00N 37°52' W 122°25'510.1
2017-Dec-08 12:30N 37°57' W 122°27'5 9.6
2017-Dec-08 12:00N 38°01' W 122°23'5 9.2
2017-Dec-08 11:30N 38°03' W 122°18'5 8.0
2017-Dec-08 10:52N 38°03' W 122°11'3 7.4
2017-Dec-08 10:30N 38°02' W 122°09'0 0.9
2017-Dec-08 09:59N 38°02' W 122°08'3 3.0
2017-Dec-08 09:08N 38°03' W 122°11'1 8.1
2017-Dec-08 08:59N 38°03' W 122°12'2 4.1
2017-Dec-08 08:30N 38°03' W 122°15'0 0.0
2017-Dec-08 08:00N 38°03' W 122°15'0 0.0
2017-Dec-08 07:30N 38°03' W 122°15'0 0.0
2017-Dec-08 07:00N 38°03' W 122°15'0 0.0
2017-Dec-08 06:30N 38°03' W 122°15'0 0.0
2017-Dec-08 06:00N 38°03' W 122°15'0 0.0
2017-Dec-08 05:30N 38°03' W 122°15'0 0.0
2017-Dec-08 05:00N 38°03' W 122°15'0 0.1
2017-Dec-08 04:30N 38°03' W 122°15'0 0.0
2017-Dec-08 04:00N 38°03' W 122°15'0 0.1
2017-Dec-08 03:29N 38°03' W 122°15'0 0.0
2017-Dec-08 03:00N 38°03' W 122°15'0 0.0
2017-Dec-08 02:30N 38°03' W 122°15'0 0.0
2017-Dec-08 02:00N 38°03' W 122°15'0 0.0
2017-Dec-08 01:22N 38°03' W 122°15'0 0.0
2017-Dec-08 01:00N 38°03' W 122°15'0 0.0
2017-Dec-08 00:29N 38°03' W 122°15'0 0.0
2017-Dec-07 23:59N 38°03' W 122°15'0 0.0
2017-Dec-07 23:30N 38°03' W 122°15'0 0.0
2017-Dec-07 23:00N 38°03' W 122°15'0 0.0
2017-Dec-07 22:27N 38°03' W 122°15'0 0.0
2017-Dec-07 21:57N 38°03' W 122°15'1 0.7
2017-Dec-07 20:42N 38°03' W 122°16'0 0.4
2017-Dec-07 20:30N 38°03' W 122°16'2 2.2
2017-Dec-07 19:45N 38°03' W 122°18'1 2.0
2017-Dec-07 19:28N 38°03' W 122°18'3 6.2
2017-Dec-07 18:56N 38°02' W 122°22'4 8.5
2017-Dec-07 18:28N 37°59' W 122°25'3 7.6
2017-Dec-07 18:00N 37°55' W 122°25'1 1.1
2017-Dec-07 17:30N 37°56' W 122°25'0 1.0
2017-Dec-07 17:00N 37°55' W 122°25'0 0.0
2017-Dec-07 16:30N 37°55' W 122°25'0 0.0
2017-Dec-07 16:00N 37°55' W 122°25'0 0.0
2017-Dec-07 15:29N 37°55' W 122°25'0 0.0
2017-Dec-07 15:00N 37°55' W 122°25'0 0.0
2017-Dec-07 14:30N 37°55' W 122°25'0 0.0
2017-Dec-07 14:00N 37°55' W 122°25'0 0.0
2017-Dec-07 13:29N 37°55' W 122°25'0 0.0
2017-Dec-07 12:59N 37°55' W 122°25'0 0.0
2017-Dec-07 12:30N 37°55' W 122°25'0 0.0
2017-Dec-07 12:00N 37°55' W 122°25'0 0.0
2017-Dec-07 11:30N 37°55' W 122°25'0 0.0
2017-Dec-07 11:00N 37°55' W 122°25'0 0.0
2017-Dec-07 10:30N 37°55' W 122°25'0 0.0
2017-Dec-07 10:00N 37°55' W 122°25'1 1.3
2017-Dec-07 09:30N 37°56' W 122°25'3 6.4
2017-Dec-07 09:00N 37°59' W 122°25'3 6.9
2017-Dec-07 08:30N 38°01' W 122°23'4 8.1
2017-Dec-07 07:59N 38°03' W 122°18'3 5.4
2017-Dec-07 07:30N 38°04' W 122°15'0 0.0
2017-Dec-07 07:00N 38°04' W 122°15'1 1.2
2017-Dec-07 06:23N 38°04' W 122°15'1 2.8
2017-Dec-07 05:56N 38°03' W 122°17'6 5.3
2017-Dec-07 04:48N 38°01' W 122°24'2 6.7
2017-Dec-07 04:29N 37°59' W 122°25'3 6.8
2017-Dec-07 04:00N 37°55' W 122°25'3 7.1
2017-Dec-07 03:30N 37°52' W 122°24'5 9.2
2017-Dec-07 03:01N 37°49' W 122°21'1 1.6
2017-Dec-07 02:30N 37°49' W 122°20'2 4.1
2017-Dec-07 02:01N 37°48' W 122°22'1 2.5
2017-Dec-07 01:30N 37°48' W 122°24'0 0.0
2017-Dec-07 01:00N 37°48' W 122°24'0 0.2
2017-Dec-07 00:30N 37°48' W 122°24'3 5.5
2017-Dec-07 00:00N 37°49' W 122°20'0 0.1
2017-Dec-06 23:30N 37°49' W 122°20'1 1.0
2017-Dec-06 23:00N 37°49' W 122°20'3 5.1
2017-Dec-06 22:31N 37°48' W 122°23'1 1.7
2017-Dec-06 22:00N 37°48' W 122°24'0 0.0
2017-Dec-06 21:30N 37°48' W 122°24'0 0.0
2017-Dec-06 21:00N 37°48' W 122°24'  
2017-Dec-04 10:30N 37°49' W 122°20'0 0.4
2017-Dec-04 10:01N 37°49' W 122°20'0 0.1
2017-Dec-04 09:31N 37°49' W 122°20'0 0.4
2017-Dec-04 09:00N 37°49' W 122°20'0 0.2
2017-Dec-04 08:30N 37°48' W 122°20'0 0.2
2017-Dec-04 08:01N 37°48' W 122°20'3 5.0
2017-Dec-04 07:30N 37°48' W 122°23'0 0.7
2017-Dec-04 07:00N 37°48' W 122°24'0 0.0
2017-Dec-04 06:30N 37°48' W 122°24'0 0.0
2017-Dec-04 06:00N 37°48' W 122°24'0 0.0
2017-Dec-04 05:30N 37°48' W 122°24'0 0.0
2017-Dec-04 05:00N 37°48' W 122°24'0 0.0
2017-Dec-04 04:30N 37°48' W 122°24'0 0.0
2017-Dec-04 04:00N 37°48' W 122°24'0 0.0
2017-Dec-04 03:30N 37°48' W 122°24'0 0.0
2017-Dec-04 03:00N 37°48' W 122°24'0 0.0
2017-Dec-04 02:30N 37°48' W 122°24'0 0.0
2017-Dec-04 02:00N 37°48' W 122°24'0 0.0
2017-Dec-04 01:30N 37°48' W 122°24'0 0.0
2017-Dec-04 01:00N 37°48' W 122°24'0 0.0
2017-Dec-04 00:30N 37°48' W 122°24'0 0.0
2017-Dec-04 00:00N 37°48' W 122°24'0 0.0
2017-Dec-03 23:30N 37°48' W 122°24'0 0.0
2017-Dec-03 23:00N 37°48' W 122°24'0 0.0
2017-Dec-03 22:30N 37°48' W 122°24'0 0.0
2017-Dec-03 22:00N 37°48' W 122°24'0 0.0
2017-Dec-03 21:30N 37°48' W 122°24'0 0.0
2017-Dec-03 21:00N 37°48' W 122°24'0 0.0
2017-Dec-03 20:30N 37°48' W 122°24'3 6.8
2017-Dec-03 20:00N 37°46' W 122°21'1 2.4
2017-Dec-03 19:31N 37°46' W 122°22'4 8.8
2017-Dec-03 19:00N 37°51' W 122°24'5 9.2
2017-Dec-03 18:30N 37°55' W 122°27'4 8.6
2017-Dec-03 17:59N 37°59' W 122°26'4 8.5
2017-Dec-03 17:30N 38°02' W 122°22'4 8.9
2017-Dec-03 17:00N 38°04' W 122°17'2 3.2
2017-Dec-03 16:28N 38°04' W 122°15'0 0.1
2017-Dec-03 15:58N 38°04' W 122°15'0 0.2
2017-Dec-03 15:30N 38°04' W 122°15'0 0.1
2017-Dec-03 15:00N 38°03' W 122°15'0 0.0
2017-Dec-03 14:29N 38°03' W 122°15'0 0.0
2017-Dec-03 13:58N 38°03' W 122°15'0 0.0
2017-Dec-03 13:30N 38°03' W 122°15'0 0.0
2017-Dec-03 13:00N 38°03' W 122°15'0 0.0
2017-Dec-03 12:28N 38°03' W 122°15'0 0.0
2017-Dec-03 11:58N 38°03' W 122°15'0 0.0
2017-Dec-03 11:26N 38°03' W 122°15'0 0.0
2017-Dec-03 10:57N 38°03' W 122°15'0 0.0
2017-Dec-03 10:28N 38°03' W 122°15'0 0.0
2017-Dec-03 09:59N 38°03' W 122°15'0 0.0
2017-Dec-03 09:30N 38°03' W 122°15'0 0.0
2017-Dec-03 08:51N 38°03' W 122°15'0 0.0
2017-Dec-03 08:29N 38°03' W 122°15'0 0.0
2017-Dec-03 07:58N 38°03' W 122°15'0 0.0
2017-Dec-03 07:28N 38°03' W 122°15'0 0.0
2017-Dec-03 07:00N 38°03' W 122°15'1 0.8
2017-Dec-03 05:54N 38°03' W 122°16'1 2.1
2017-Dec-03 05:28N 38°04' W 122°15'0 0.1
2017-Dec-03 05:00N 38°03' W 122°15'0 0.0
2017-Dec-03 04:30N 38°03' W 122°15'0 0.1
2017-Dec-03 03:59N 38°03' W 122°15'0 0.0
2017-Dec-03 03:30N 38°03' W 122°15'0 0.0
2017-Dec-03 03:00N 38°03' W 122°15'0 0.0
2017-Dec-03 02:30N 38°03' W 122°15'0 0.1
2017-Dec-03 02:00N 38°03' W 122°15'0 0.1
2017-Dec-03 01:30N 38°03' W 122°15'0 0.0
2017-Dec-03 01:00N 38°03' W 122°15'0 0.0
2017-Dec-03 00:30N 38°03' W 122°15'0 0.0
2017-Dec-03 00:00N 38°03' W 122°15'0 0.0
2017-Dec-02 23:21N 38°03' W 122°15'0 0.1
2017-Dec-02 22:55N 38°03' W 122°15'0 0.1
2017-Dec-02 22:30N 38°03' W 122°15'0 0.0
2017-Dec-02 22:00N 38°03' W 122°15'0 0.0
2017-Dec-02 21:28N 38°03' W 122°15'0 0.0
2017-Dec-02 20:58N 38°03' W 122°15'0 0.0
2017-Dec-02 20:28N 38°03' W 122°15'0 0.0
2017-Dec-02 20:00N 38°03' W 122°15'0 0.0
2017-Dec-02 19:30N 38°03' W 122°15'0 0.0
2017-Dec-02 19:00N 38°03' W 122°15'0 0.0
2017-Dec-02 18:30N 38°03' W 122°15'0 0.0
2017-Dec-02 18:00N 38°03' W 122°15'0 0.0
2017-Dec-02 17:30N 38°03' W 122°15'0 0.0
2017-Dec-02 17:00N 38°03' W 122°15'4 7.0
2017-Dec-02 16:30N 38°02' W 122°10'1 0.6
2017-Dec-02 14:48N 38°02' W 122°09'3 8.3
2017-Dec-02 14:26N 38°03' W 122°12'2 0.2
2017-Dec-02 04:42N 38°03' W 122°15'0 0.2
2017-Dec-02 04:27N 38°03' W 122°15'0 0.0
2017-Dec-01 19:22N 38°03' W 122°15'0 0.0
2017-Dec-01 19:00N 38°03' W 122°15'8 8.5
2017-Dec-01 18:06N 38°01' W 122°24'1 9.2
2017-Dec-01 18:00N 38°00' W 122°25'4 8.2
2017-Dec-01 17:30N 37°56' W 122°26'3 6.9
2017-Dec-01 17:00N 37°54' W 122°22'  
Track history (hours):
 
Tides and Currents Weather Stations Pressure Air Temp Water Temp Dewpoint Dewpoint Depression Visibility Wind Speed Wind Dir Waves Ship Positions

Valor

Owner: Crowley Marine Services, Seattle, WA. More information available from US FCC via Universal Licensing System and Coast Guard Vessel Documentation Center.

Last reported at 2017-Dec-11 17:00 UTC. Time now 2017-Dec-14 00:26 UTC.
Position N 37°55' W 122°25'.

Length 8 m; draft 5.5 m.

Type: Tug. MMSI: 367301480.

Date/timePositionNaut miles runAvg speedWind from/ knotsBaromVisibWave heightAir tempDewpointWater temp
2017-Dec-11 17:00N 37°55' W 122°25'4 7.5
2017-Dec-11 16:30N 37°52' W 122°25'510.9
2017-Dec-11 16:00N 37°47' W 122°21'1 2.8
2017-Dec-11 15:30N 37°45' W 122°21'1 1.6
2017-Dec-11 15:00N 37°46' W 122°21'2 4.6
2017-Dec-11 14:30N 37°48' W 122°19'0 0.8
2017-Dec-11 14:00N 37°48' W 122°19'0 0.0
2017-Dec-11 13:31N 37°48' W 122°19'4 8.4
2017-Dec-11 13:01N 37°48' W 122°24'0 0.1
2017-Dec-11 12:30N 37°48' W 122°24'0 0.0
2017-Dec-11 12:00N 37°48' W 122°24'0 0.0
2017-Dec-11 11:30N 37°48' W 122°24'0 0.0
2017-Dec-11 11:00N 37°48' W 122°24'0 0.0
2017-Dec-11 10:30N 37°48' W 122°24'0 0.0
2017-Dec-11 10:00N 37°48' W 122°24'0 0.0
2017-Dec-11 09:30N 37°48' W 122°24'0 0.0
2017-Dec-11 09:00N 37°48' W 122°24'0 0.0
2017-Dec-11 08:30N 37°48' W 122°24'0 0.0
2017-Dec-11 08:00N 37°48' W 122°24'0 0.0
2017-Dec-11 07:30N 37°48' W 122°24'0 0.0
2017-Dec-11 07:00N 37°48' W 122°24'0 0.0
2017-Dec-11 06:30N 37°48' W 122°24'0 0.0
2017-Dec-11 06:00N 37°48' W 122°24'0 0.0
2017-Dec-11 05:30N 37°48' W 122°24'0 0.0
2017-Dec-11 05:00N 37°48' W 122°24'0 0.0
2017-Dec-11 04:30N 37°48' W 122°24'0 0.0
2017-Dec-11 04:00N 37°48' W 122°24'0 0.0
2017-Dec-11 03:30N 37°48' W 122°24'1 1.5
2017-Dec-11 03:00N 37°48' W 122°23'3 6.1
2017-Dec-11 02:30N 37°48' W 122°19'1 1.2
2017-Dec-11 02:00N 37°48' W 122°20'3 5.9
2017-Dec-11 01:30N 37°48' W 122°24'0 0.6
2017-Dec-11 01:00N 37°48' W 122°24'0 0.0
2017-Dec-11 00:30N 37°48' W 122°24'0 0.0
2017-Dec-11 00:00N 37°48' W 122°24'0 0.0
2017-Dec-10 23:30N 37°48' W 122°24'0 0.0
2017-Dec-10 23:00N 37°48' W 122°24'0 0.0
2017-Dec-10 22:30N 37°48' W 122°24'0 0.0
2017-Dec-10 22:00N 37°48' W 122°24'0 0.0
2017-Dec-10 21:30N 37°48' W 122°24'0 0.0
2017-Dec-10 21:00N 37°48' W 122°24'0 0.0
2017-Dec-10 20:30N 37°48' W 122°24'0 0.0
2017-Dec-10 19:59N 37°48' W 122°24'0 0.0
2017-Dec-10 19:30N 37°48' W 122°24'0 0.0
2017-Dec-10 19:00N 37°48' W 122°24'0 0.0
2017-Dec-10 18:30N 37°48' W 122°24'0 0.0
2017-Dec-10 18:00N 37°48' W 122°24'0 0.0
2017-Dec-10 17:30N 37°48' W 122°24'0 0.0
2017-Dec-10 17:00N 37°48' W 122°24'0 0.1
2017-Dec-10 16:30N 37°48' W 122°24'0 0.1
2017-Dec-10 16:00N 37°48' W 122°24'0 0.0
2017-Dec-10 15:30N 37°48' W 122°24'0 0.0
2017-Dec-10 15:00N 37°48' W 122°24'2 3.0
2017-Dec-10 14:30N 37°48' W 122°22'1 2.7
2017-Dec-10 14:00N 37°49' W 122°20'0 0.9
2017-Dec-10 13:30N 37°49' W 122°20'3 5.9
2017-Dec-10 13:00N 37°48' W 122°24'0 0.6
2017-Dec-10 12:30N 37°48' W 122°24'0 0.0
2017-Dec-10 11:59N 37°48' W 122°24'0 0.0
2017-Dec-10 11:29N 37°48' W 122°24'0 0.0
2017-Dec-10 11:00N 37°48' W 122°24'0 0.0
2017-Dec-10 10:30N 37°48' W 122°24'0 0.0
2017-Dec-10 09:55N 37°48' W 122°24'0 0.0
2017-Dec-10 09:29N 37°48' W 122°24'0 0.0
2017-Dec-10 09:00N 37°48' W 122°24'0 0.0
2017-Dec-10 08:30N 37°48' W 122°24'2 4.9
2017-Dec-10 08:00N 37°48' W 122°21'2 4.0
2017-Dec-10 07:31N 37°48' W 122°18'1 1.1
2017-Dec-10 07:01N 37°48' W 122°18'2 3.9
2017-Dec-10 06:30N 37°48' W 122°20'3 5.4
2017-Dec-10 06:00N 37°48' W 122°23'1 2.3
2017-Dec-10 05:30N 37°50' W 122°24'2 5.0
2017-Dec-10 05:00N 37°52' W 122°25'5 9.1
2017-Dec-10 04:30N 37°56' W 122°26'510.0
2017-Dec-10 04:00N 38°01' W 122°23'5 9.2
2017-Dec-10 03:30N 38°03' W 122°18'5 8.5
2017-Dec-10 02:58N 38°03' W 122°12'3 7.2
2017-Dec-10 02:30N 38°02' W 122°08'2 1.2
2017-Dec-10 00:55N 38°03' W 122°11'6 8.5
2017-Dec-10 00:14N 38°03' W 122°18'4 8.7
2017-Dec-09 23:48N 38°01' W 122°23'3 8.7
2017-Dec-09 23:30N 37°60' W 122°25'4 8.7
2017-Dec-09 23:00N 37°55' W 122°25'4 8.8
2017-Dec-09 22:30N 37°51' W 122°24'3 5.8
2017-Dec-09 22:00N 37°48' W 122°24'0 0.0
2017-Dec-09 21:30N 37°48' W 122°24'0 0.0
2017-Dec-09 21:00N 37°48' W 122°24'0 0.0
2017-Dec-09 20:30N 37°48' W 122°24'0 0.0
2017-Dec-09 20:00N 37°48' W 122°24'0 0.0
2017-Dec-09 19:30N 37°48' W 122°24'0 0.0
2017-Dec-09 19:00N 37°48' W 122°24'0 0.0
2017-Dec-09 18:30N 37°48' W 122°24'0 0.0
2017-Dec-09 18:00N 37°48' W 122°24'0 0.0
2017-Dec-09 17:30N 37°48' W 122°24'0 0.0
2017-Dec-09 17:00N 37°48' W 122°24'0 0.0
2017-Dec-09 16:30N 37°48' W 122°24'0 0.0
2017-Dec-09 16:00N 37°48' W 122°24'0 0.0
2017-Dec-09 15:30N 37°48' W 122°24'0 0.0
2017-Dec-09 14:50N 37°48' W 122°24'0 0.0
2017-Dec-09 14:30N 37°48' W 122°24'0 0.0
2017-Dec-09 13:59N 37°48' W 122°24'0 0.0
2017-Dec-09 13:30N 37°48' W 122°24'0 0.0
2017-Dec-09 13:00N 37°48' W 122°24'0 0.0
2017-Dec-09 12:30N 37°48' W 122°24'0 0.0
2017-Dec-09 11:47N 37°48' W 122°24'0 0.0
2017-Dec-09 11:15N 37°48' W 122°24'0 0.0
2017-Dec-09 10:59N 37°48' W 122°24'0 0.0
2017-Dec-09 10:30N 37°48' W 122°24'0 0.0
2017-Dec-09 10:00N 37°48' W 122°24'0 0.0
2017-Dec-09 09:30N 37°48' W 122°24'0 0.0
2017-Dec-09 09:00N 37°48' W 122°24'0 0.0
2017-Dec-09 08:30N 37°48' W 122°24'0 0.0
2017-Dec-09 08:00N 37°48' W 122°24'0 0.0
2017-Dec-09 07:30N 37°48' W 122°24'0 0.0
2017-Dec-09 07:00N 37°48' W 122°24'0 0.0
2017-Dec-09 06:30N 37°48' W 122°24'0 0.0
2017-Dec-09 06:00N 37°48' W 122°24'0 0.0
2017-Dec-09 05:30N 37°48' W 122°24'0 0.0
2017-Dec-09 05:00N 37°48' W 122°24'0 0.0
2017-Dec-09 04:30N 37°48' W 122°24'0 0.0
2017-Dec-09 04:00N 37°48' W 122°24'0 0.0
2017-Dec-09 03:30N 37°48' W 122°24'0 0.0
2017-Dec-09 03:00N 37°48' W 122°24'0 0.0
2017-Dec-09 02:30N 37°48' W 122°24'2 3.6
2017-Dec-09 02:00N 37°47' W 122°22'2 3.4
2017-Dec-09 01:31N 37°46' W 122°21'1 2.2
2017-Dec-09 01:00N 37°47' W 122°21'4 8.8
2017-Dec-09 00:30N 37°49' W 122°26'3 6.9
2017-Dec-09 00:00N 37°48' W 122°30'1 1.0
2017-Dec-08 23:30N 37°48' W 122°30'1 2.1
2017-Dec-08 23:00N 37°49' W 122°29'3 6.1
2017-Dec-08 22:30N 37°49' W 122°25'1 2.4
2017-Dec-08 22:00N 37°48' W 122°24'0 0.0
2017-Dec-08 21:27N 37°48' W 122°24'0 0.0
2017-Dec-08 20:50N 37°48' W 122°24'0 0.0
2017-Dec-08 20:29N 37°48' W 122°24'0 0.0
2017-Dec-08 20:00N 37°48' W 122°24'0 0.0
2017-Dec-08 19:30N 37°48' W 122°24'0 0.0
2017-Dec-08 19:00N 37°48' W 122°24'0 0.0
2017-Dec-08 18:30N 37°48' W 122°24'1 2.0
2017-Dec-08 18:00N 37°49' W 122°24'5 9.5
2017-Dec-08 17:30N 37°54' W 122°25'2 3.0
2017-Dec-08 17:00N 37°55' W 122°25'1 1.9
2017-Dec-08 16:30N 37°55' W 122°26'0 0.3
2017-Dec-08 16:00N 37°55' W 122°26'1 1.6
2017-Dec-08 15:30N 37°54' W 122°26'2 4.5
2017-Dec-08 15:00N 37°52' W 122°24'3 6.7
2017-Dec-08 14:30N 37°50' W 122°27'3 5.3
2017-Dec-08 14:00N 37°49' W 122°30'1 2.4
2017-Dec-08 13:31N 37°49' W 122°29'4 8.4
2017-Dec-08 13:00N 37°52' W 122°25'510.1
2017-Dec-08 12:30N 37°57' W 122°27'5 9.6
2017-Dec-08 12:00N 38°01' W 122°23'5 9.2
2017-Dec-08 11:30N 38°03' W 122°18'5 8.0
2017-Dec-08 10:52N 38°03' W 122°11'3 7.4
2017-Dec-08 10:30N 38°02' W 122°09'0 0.9
2017-Dec-08 09:59N 38°02' W 122°08'3 3.0
2017-Dec-08 09:08N 38°03' W 122°11'1 8.1
2017-Dec-08 08:59N 38°03' W 122°12'2 4.1
2017-Dec-08 08:30N 38°03' W 122°15'0 0.0
2017-Dec-08 08:00N 38°03' W 122°15'0 0.0
2017-Dec-08 07:30N 38°03' W 122°15'0 0.0
2017-Dec-08 07:00N 38°03' W 122°15'0 0.0
2017-Dec-08 06:30N 38°03' W 122°15'0 0.0
2017-Dec-08 06:00N 38°03' W 122°15'0 0.0
2017-Dec-08 05:30N 38°03' W 122°15'0 0.0
2017-Dec-08 05:00N 38°03' W 122°15'0 0.1
2017-Dec-08 04:30N 38°03' W 122°15'0 0.0
2017-Dec-08 04:00N 38°03' W 122°15'0 0.1
2017-Dec-08 03:29N 38°03' W 122°15'0 0.0
2017-Dec-08 03:00N 38°03' W 122°15'0 0.0
2017-Dec-08 02:30N 38°03' W 122°15'0 0.0
2017-Dec-08 02:00N 38°03' W 122°15'0 0.0
2017-Dec-08 01:22N 38°03' W 122°15'0 0.0
2017-Dec-08 01:00N 38°03' W 122°15'0 0.0
2017-Dec-08 00:29N 38°03' W 122°15'0 0.0
2017-Dec-07 23:59N 38°03' W 122°15'0 0.0
2017-Dec-07 23:30N 38°03' W 122°15'0 0.0
2017-Dec-07 23:00N 38°03' W 122°15'0 0.0
2017-Dec-07 22:27N 38°03' W 122°15'0 0.0
2017-Dec-07 21:57N 38°03' W 122°15'1 0.7
2017-Dec-07 20:42N 38°03' W 122°16'0 0.4
2017-Dec-07 20:30N 38°03' W 122°16'2 2.2
2017-Dec-07 19:45N 38°03' W 122°18'1 2.0
2017-Dec-07 19:28N 38°03' W 122°18'3 6.2
2017-Dec-07 18:56N 38°02' W 122°22'4 8.5
2017-Dec-07 18:28N 37°59' W 122°25'3 7.6
2017-Dec-07 18:00N 37°55' W 122°25'1 1.1
2017-Dec-07 17:30N 37°56' W 122°25'0 1.0
2017-Dec-07 17:00N 37°55' W 122°25'0 0.0
2017-Dec-07 16:30N 37°55' W 122°25'0 0.0
2017-Dec-07 16:00N 37°55' W 122°25'0 0.0
2017-Dec-07 15:29N 37°55' W 122°25'0 0.0
2017-Dec-07 15:00N 37°55' W 122°25'0 0.0
2017-Dec-07 14:30N 37°55' W 122°25'0 0.0
2017-Dec-07 14:00N 37°55' W 122°25'0 0.0
2017-Dec-07 13:29N 37°55' W 122°25'0 0.0
2017-Dec-07 12:59N 37°55' W 122°25'0 0.0
2017-Dec-07 12:30N 37°55' W 122°25'0 0.0
2017-Dec-07 12:00N 37°55' W 122°25'0 0.0
2017-Dec-07 11:30N 37°55' W 122°25'0 0.0
2017-Dec-07 11:00N 37°55' W 122°25'0 0.0
2017-Dec-07 10:30N 37°55' W 122°25'0 0.0
2017-Dec-07 10:00N 37°55' W 122°25'1 1.3
2017-Dec-07 09:30N 37°56' W 122°25'3 6.4
2017-Dec-07 09:00N 37°59' W 122°25'3 6.9
2017-Dec-07 08:30N 38°01' W 122°23'4 8.1
2017-Dec-07 07:59N 38°03' W 122°18'3 5.4
2017-Dec-07 07:30N 38°04' W 122°15'0 0.0
2017-Dec-07 07:00N 38°04' W 122°15'1 1.2
2017-Dec-07 06:23N 38°04' W 122°15'1 2.8
2017-Dec-07 05:56N 38°03' W 122°17'6 5.3
2017-Dec-07 04:48N 38°01' W 122°24'2 6.7
2017-Dec-07 04:29N 37°59' W 122°25'3 6.8
2017-Dec-07 04:00N 37°55' W 122°25'3 7.1
2017-Dec-07 03:30N 37°52' W 122°24'5 9.2
2017-Dec-07 03:01N 37°49' W 122°21'1 1.6
2017-Dec-07 02:30N 37°49' W 122°20'2 4.1
2017-Dec-07 02:01N 37°48' W 122°22'1 2.5
2017-Dec-07 01:30N 37°48' W 122°24'0 0.0
2017-Dec-07 01:00N 37°48' W 122°24'0 0.2
2017-Dec-07 00:30N 37°48' W 122°24'3 5.5
2017-Dec-07 00:00N 37°49' W 122°20'0 0.1
2017-Dec-06 23:30N 37°49' W 122°20'1 1.0
2017-Dec-06 23:00N 37°49' W 122°20'3 5.1
2017-Dec-06 22:31N 37°48' W 122°23'1 1.7
2017-Dec-06 22:00N 37°48' W 122°24'0 0.0
2017-Dec-06 21:30N 37°48' W 122°24'0 0.0
2017-Dec-06 21:00N 37°48' W 122°24'  
2017-Dec-04 10:30N 37°49' W 122°20'0 0.4
2017-Dec-04 10:01N 37°49' W 122°20'0 0.1
2017-Dec-04 09:31N 37°49' W 122°20'0 0.4
2017-Dec-04 09:00N 37°49' W 122°20'0 0.2
2017-Dec-04 08:30N 37°48' W 122°20'0 0.2
2017-Dec-04 08:01N 37°48' W 122°20'3 5.0
2017-Dec-04 07:30N 37°48' W 122°23'0 0.7
2017-Dec-04 07:00N 37°48' W 122°24'0 0.0
2017-Dec-04 06:30N 37°48' W 122°24'0 0.0
2017-Dec-04 06:00N 37°48' W 122°24'0 0.0
2017-Dec-04 05:30N 37°48' W 122°24'0 0.0
2017-Dec-04 05:00N 37°48' W 122°24'0 0.0
2017-Dec-04 04:30N 37°48' W 122°24'0 0.0
2017-Dec-04 04:00N 37°48' W 122°24'0 0.0
2017-Dec-04 03:30N 37°48' W 122°24'0 0.0
2017-Dec-04 03:00N 37°48' W 122°24'0 0.0
2017-Dec-04 02:30N 37°48' W 122°24'0 0.0
2017-Dec-04 02:00N 37°48' W 122°24'0 0.0
2017-Dec-04 01:30N 37°48' W 122°24'0 0.0
2017-Dec-04 01:00N 37°48' W 122°24'0 0.0
2017-Dec-04 00:30N 37°48' W 122°24'0 0.0
2017-Dec-04 00:00N 37°48' W 122°24'0 0.0
2017-Dec-03 23:30N 37°48' W 122°24'0 0.0
2017-Dec-03 23:00N 37°48' W 122°24'0 0.0
2017-Dec-03 22:30N 37°48' W 122°24'0 0.0
2017-Dec-03 22:00N 37°48' W 122°24'0 0.0
2017-Dec-03 21:30N 37°48' W 122°24'0 0.0
2017-Dec-03 21:00N 37°48' W 122°24'0 0.0
2017-Dec-03 20:30N 37°48' W 122°24'3 6.8
2017-Dec-03 20:00N 37°46' W 122°21'1 2.4
2017-Dec-03 19:31N 37°46' W 122°22'4 8.8
2017-Dec-03 19:00N 37°51' W 122°24'5 9.2
2017-Dec-03 18:30N 37°55' W 122°27'4 8.6
2017-Dec-03 17:59N 37°59' W 122°26'4 8.5
2017-Dec-03 17:30N 38°02' W 122°22'4 8.9
2017-Dec-03 17:00N 38°04' W 122°17'2 3.2
2017-Dec-03 16:28N 38°04' W 122°15'0 0.1
2017-Dec-03 15:58N 38°04' W 122°15'0 0.2
2017-Dec-03 15:30N 38°04' W 122°15'0 0.1
2017-Dec-03 15:00N 38°03' W 122°15'0 0.0
2017-Dec-03 14:29N 38°03' W 122°15'0 0.0
2017-Dec-03 13:58N 38°03' W 122°15'0 0.0
2017-Dec-03 13:30N 38°03' W 122°15'0 0.0
2017-Dec-03 13:00N 38°03' W 122°15'0 0.0
2017-Dec-03 12:28N 38°03' W 122°15'0 0.0
2017-Dec-03 11:58N 38°03' W 122°15'0 0.0
2017-Dec-03 11:26N 38°03' W 122°15'0 0.0
2017-Dec-03 10:57N 38°03' W 122°15'0 0.0
2017-Dec-03 10:28N 38°03' W 122°15'0 0.0
2017-Dec-03 09:59N 38°03' W 122°15'0 0.0
2017-Dec-03 09:30N 38°03' W 122°15'0 0.0
2017-Dec-03 08:51N 38°03' W 122°15'0 0.0
2017-Dec-03 08:29N 38°03' W 122°15'0 0.0
2017-Dec-03 07:58N 38°03' W 122°15'0 0.0
2017-Dec-03 07:28N 38°03' W 122°15'0 0.0
2017-Dec-03 07:00N 38°03' W 122°15'1 0.8
2017-Dec-03 05:54N 38°03' W 122°16'1 2.1
2017-Dec-03 05:28N 38°04' W 122°15'0 0.1
2017-Dec-03 05:00N 38°03' W 122°15'0 0.0
2017-Dec-03 04:30N 38°03' W 122°15'0 0.1
2017-Dec-03 03:59N 38°03' W 122°15'0 0.0
2017-Dec-03 03:30N 38°03' W 122°15'0 0.0
2017-Dec-03 03:00N 38°03' W 122°15'0 0.0
2017-Dec-03 02:30N 38°03' W 122°15'0 0.1
2017-Dec-03 02:00N 38°03' W 122°15'0 0.1
2017-Dec-03 01:30N 38°03' W 122°15'0 0.0
2017-Dec-03 01:00N 38°03' W 122°15'0 0.0
2017-Dec-03 00:30N 38°03' W 122°15'0 0.0
2017-Dec-03 00:00N 38°03' W 122°15'0 0.0
2017-Dec-02 23:21N 38°03' W 122°15'0 0.1
2017-Dec-02 22:55N 38°03' W 122°15'0 0.1
2017-Dec-02 22:30N 38°03' W 122°15'0 0.0
2017-Dec-02 22:00N 38°03' W 122°15'0 0.0
2017-Dec-02 21:28N 38°03' W 122°15'0 0.0
2017-Dec-02 20:58N 38°03' W 122°15'0 0.0
2017-Dec-02 20:28N 38°03' W 122°15'0 0.0
2017-Dec-02 20:00N 38°03' W 122°15'0 0.0
2017-Dec-02 19:30N 38°03' W 122°15'0 0.0
2017-Dec-02 19:00N 38°03' W 122°15'0 0.0
2017-Dec-02 18:30N 38°03' W 122°15'0 0.0
2017-Dec-02 18:00N 38°03' W 122°15'0 0.0
2017-Dec-02 17:30N 38°03' W 122°15'0 0.0
2017-Dec-02 17:00N 38°03' W 122°15'4 7.0
2017-Dec-02 16:30N 38°02' W 122°10'1 0.6
2017-Dec-02 14:48N 38°02' W 122°09'3 8.3
2017-Dec-02 14:26N 38°03' W 122°12'2 0.2
2017-Dec-02 04:42N 38°03' W 122°15'0 0.2
2017-Dec-02 04:27N 38°03' W 122°15'0 0.0
2017-Dec-01 19:22N 38°03' W 122°15'0 0.0
2017-Dec-01 19:00N 38°03' W 122°15'8 8.5
2017-Dec-01 18:06N 38°01' W 122°24'1 9.2
2017-Dec-01 18:00N 38°00' W 122°25'4 8.2
2017-Dec-01 17:30N 37°56' W 122°26'3 6.9
2017-Dec-01 17:00N 37°54' W 122°22'  

Dump ship's entire track history